»·PEaware :: N5954W KASE-KDEN

N5954W :: KASE-KDEN

FLIGHT INFORMATION

Flight Status: Arrived
Operator: Privately registered:
United States
More flights under this callsign
Pilot: Joshua M. (19482)
Aircraft: MCDONNELL-DOUGLAS MD-82
(MD82)
More flights by this aircraft type
Origin: KASE Aspen-Pitkin Co/Sardy
United States
Destination: KDEN Denver Intl
United States
More flights between these airports :: More routes between these airports
Route: +LINDZ9 DBL JNETT TELLR2
File this flight plan on PilotEdge
Remarks:
Altitude:
(Current/Filed)
21,000ft
Speed:
(Current/Filed)
0kts
Departed: 31-Jul-18 06:42 PM
Arrived: 31-Jul-18 07:38 PM
Distance/Time
Traveled:
108nm/0:55
Distance/Time
To Go:
Arrived

Flight Plot

Page will automatically refresh every two minutes.

Flight plan parsing failed; only flown route is shown


Map Options




Map Legend


Flown Route
Filed Route
Departure Airport
Arrival Airport
Navaid (VOR, NDB)
Fix

Horizontal Profiles

Position Reports

Time Latitude Longitude Heading Altitude Ground
Speed
31-Jul-18 18:33 39.218142 -106.864661 59 7842ft 0kts
31-Jul-18 18:34 39.218142 -106.864661 59 7842ft 0kts
31-Jul-18 18:35 39.218142 -106.864661 59 7842ft 0kts
31-Jul-18 18:36 39.218142 -106.864661 59 7842ft 0kts
31-Jul-18 18:37 39.218142 -106.864661 59 7842ft 0kts
31-Jul-18 18:38 39.218262 -106.864726 248 7842ft 0kts
31-Jul-18 18:39 39.215597 -106.864049 159 7842ft 33kts
31-Jul-18 18:40 39.212295 -106.862476 177 7842ft 0kts
31-Jul-18 18:41 39.212292 -106.862476 178 7842ft 0kts
31-Jul-18 18:42 39.212196 -106.863634 339 7842ft 0kts
31-Jul-18 18:43 39.226790 -106.870626 339 7842ft 148kts
31-Jul-18 18:44 39.273034 -106.885423 352 9226ft 202kts
31-Jul-18 18:45 39.322163 -106.906326 290 11146ft 223kts
31-Jul-18 18:46 39.334409 -106.981253 281 13434ft 237kts
31-Jul-18 18:47 39.344602 -107.057938 280 15641ft 247kts
31-Jul-18 18:48 39.376749 -107.121659 1 17524ft 260kts
31-Jul-18 18:49 39.413786 -107.056567 77 19643ft 260kts
31-Jul-18 18:50 39.428681 -106.964166 78 21345ft 276kts
31-Jul-18 18:51 39.433333 -106.874469 101 21090ft 267kts
31-Jul-18 18:52 39.415602 -106.781540 104 21185ft 279kts
31-Jul-18 18:53 39.397288 -106.693238 105 21068ft 265kts
31-Jul-18 18:54 39.378658 -106.604468 105 21058ft 266kts
31-Jul-18 18:55 39.360571 -106.518695 105 21035ft 260kts
31-Jul-18 18:56 39.337428 -106.429799 110 21109ft 265kts
31-Jul-18 18:57 39.312990 -106.347111 111 20904ft 252kts
31-Jul-18 18:58 39.287176 -106.260413 111 20770ft 272kts
31-Jul-18 18:59 39.258341 -106.163933 111 20402ft 304kts
31-Jul-18 19:00 39.252178 -106.047565 82 17511ft 358kts
31-Jul-18 19:01 39.268966 -105.928456 78 17488ft 321kts
31-Jul-18 19:02 39.278230 -105.835337 84 16092ft 315kts
31-Jul-18 19:03 39.284247 -105.786216 76 15685ft 295kts
31-Jul-18 19:04 39.309175 -105.685956 74 16428ft 317kts
31-Jul-18 19:05 39.353650 -105.576915 60 17096ft 359kts
31-Jul-18 19:06 39.374073 -105.467039 106 16329ft 317kts
31-Jul-18 19:07 39.361373 -105.415413 107 15576ft 314kts
31-Jul-18 19:08 39.322311 -105.269553 0 15022ft 0kts
31-Jul-18 19:09 39.295538 -105.174220 107 15051ft 285kts
31-Jul-18 19:10 39.301561 -105.077576 78 14224ft 276kts
31-Jul-18 19:11 39.314640 -104.983165 77 12889ft 271kts
31-Jul-18 19:12 39.328336 -104.888671 77 11567ft 265kts
31-Jul-18 19:13 39.342000 -104.796546 77 10285ft 259kts
31-Jul-18 19:14 39.389226 -104.736640 28 9040ft 246kts
31-Jul-18 19:15 39.447011 -104.696775 27 9043ft 252kts
31-Jul-18 19:16 39.506694 -104.652139 13 9062ft 250kts
31-Jul-18 19:17 39.574158 -104.661269 356 9075ft 222kts
31-Jul-18 19:18 39.629983 -104.662957 0 9029ft 200kts
31-Jul-18 19:19 39.684073 -104.662445 1 8243ft 178kts
31-Jul-18 19:20 39.727620 -104.661862 2 7418ft 165kts
31-Jul-18 19:21 39.769371 -104.661333 2 6628ft 166kts
31-Jul-18 19:22 39.809661 -104.661241 4 5784ft 167kts
31-Jul-18 19:23 39.855301 -104.660276 2 5786ft 179kts
31-Jul-18 19:24 39.917062 -104.662128 359 7344ft 248kts
31-Jul-18 19:25 39.986648 -104.661169 26 8986ft 254kts
31-Jul-18 19:26 40.003258 -104.575883 87 9972ft 260kts
31-Jul-18 19:27 39.969680 -104.508249 175 10064ft 268kts
31-Jul-18 19:28 39.895363 -104.504261 177 10008ft 267kts
31-Jul-18 19:29 39.819552 -104.500725 177 10023ft 289kts
31-Jul-18 19:30 39.738723 -104.496875 177 10013ft 290kts
31-Jul-18 19:31 39.658545 -104.493039 177 10017ft 290kts
31-Jul-18 19:32 39.578989 -104.496468 214 10034ft 289kts
31-Jul-18 19:33 39.560594 -104.591047 290 9031ft 279kts
31-Jul-18 19:34 39.619511 -104.652728 327 9017ft 277kts
31-Jul-18 19:35 39.687606 -104.662360 0 8350ft 224kts
31-Jul-18 19:36 39.742234 -104.661697 1 7110ft 172kts
31-Jul-18 19:37 39.787405 -104.661549 1 6207ft 162kts
31-Jul-18 19:38 39.832132 -104.660514 2 5481ft 159kts
31-Jul-18 19:39 39.856671 -104.660667 286 5441ft 10kts
31-Jul-18 19:40 39.856758 -104.661639 269 5441ft 3kts
31-Jul-18 19:41 39.854681 -104.662366 179 5441ft 15kts
31-Jul-18 19:42 39.849061 -104.662436 179 5441ft 21kts
31-Jul-18 19:43 39.842918 -104.662466 179 5441ft 19kts
31-Jul-18 19:44 39.839661 -104.664387 260 5441ft 13kts
31-Jul-18 19:45 39.839638 -104.664780 267 5441ft 0kts
31-Jul-18 19:46 39.839638 -104.664780 267 5441ft 0kts

Navigation Log

Ident Type
Flight plan parsing failed, navigation log unavailable